createdAt,value
2018-07-06T00:00:27.257Z,0
2018-07-06T00:01:27.941Z,0
2018-07-06T00:02:28.721Z,0
2018-07-06T00:03:29.405Z,0
2018-07-06T00:04:30.087Z,0
2018-07-06T00:05:30.771Z,0
2018-07-06T00:06:31.503Z,0
2018-07-06T00:07:32.186Z,0
2018-07-06T00:08:32.886Z,0
2018-07-06T00:09:33.551Z,0
2018-07-06T00:10:34.235Z,0
2018-07-06T00:11:34.968Z,0
2018-07-06T00:12:35.653Z,0
2018-07-06T00:13:36.333Z,0
2018-07-06T00:14:37.017Z,0
2018-07-06T00:15:37.752Z,0
2018-07-06T00:16:38.481Z,0
2018-07-06T00:17:39.165Z,0
2018-07-06T00:18:39.847Z,0
2018-07-06T00:19:40.528Z,0
2018-07-06T00:20:41.259Z,0
2018-07-06T00:21:41.992Z,0
2018-07-06T00:22:42.777Z,0
2018-07-06T00:23:43.455Z,0
2018-07-06T00:24:44.139Z,0
2018-07-06T00:25:44.820Z,0
2018-07-06T00:26:45.551Z,0
2018-07-06T00:27:46.234Z,0
2018-07-06T00:28:46.917Z,0
2018-07-06T00:29:47.598Z,0
2018-07-06T00:30:48.285Z,0
2018-07-06T00:31:49.014Z,0
2018-07-06T00:32:49.752Z,0
2018-07-06T00:33:50.434Z,0
2018-07-06T00:34:51.115Z,0
2018-07-06T00:35:51.798Z,0
2018-07-06T00:36:52.537Z,0
2018-07-06T00:37:53.262Z,0
2018-07-06T00:38:53.937Z,0
2018-07-06T00:39:54.618Z,0
2018-07-06T00:40:55.304Z,0
2018-07-06T00:41:55.984Z,0
2018-07-06T00:42:56.716Z,0
2018-07-06T00:43:57.402Z,0
2018-07-06T00:44:58.080Z,0
2018-07-06T00:45:58.812Z,0
2018-07-06T00:46:59.495Z,0
2018-07-06T00:48:00.178Z,0
2018-07-06T00:49:00.911Z,0
2018-07-06T00:50:01.643Z,0
2018-07-06T00:51:02.329Z,0
2018-07-06T00:52:03.018Z,0
2018-07-06T00:53:03.792Z,0
2018-07-06T00:54:04.475Z,0
2018-07-06T00:55:05.155Z,0
2018-07-06T00:56:05.836Z,0
2018-07-06T00:57:06.523Z,0
2018-07-06T00:58:07.300Z,0
2018-07-06T00:59:07.981Z,0
2018-07-06T01:00:08.713Z,0
2018-07-06T01:01:09.521Z,0
2018-07-06T01:02:10.225Z,0
2018-07-06T01:03:10.908Z,0
2018-07-06T01:04:11.589Z,0
2018-07-06T01:05:12.272Z,0
2018-07-06T01:06:13.007Z,0
2018-07-06T01:07:13.736Z,0
2018-07-06T01:08:14.469Z,0
2018-07-06T01:09:15.151Z,0
2018-07-06T01:10:15.978Z,0
2018-07-06T01:11:16.563Z,0
2018-07-06T01:12:17.245Z,0
2018-07-06T01:13:17.977Z,0
2018-07-06T01:14:18.661Z,0
2018-07-06T01:15:19.342Z,0
2018-07-06T01:16:20.023Z,0
2018-07-06T01:17:20.706Z,0
2018-07-06T01:18:21.438Z,0
2018-07-06T01:19:22.171Z,0
2018-07-06T01:20:22.853Z,0
2018-07-06T01:21:23.538Z,0
2018-07-06T01:22:24.217Z,0
2018-07-06T01:23:24.949Z,0
2018-07-06T01:24:25.632Z,0
2018-07-06T01:25:26.312Z,0
2018-07-06T01:26:26.994Z,0
2018-07-06T01:27:27.675Z,0
2018-07-06T01:28:28.406Z,0
2018-07-06T01:29:29.088Z,0
2018-07-06T01:30:29.769Z,0
2018-07-06T01:31:30.451Z,0
2018-07-06T01:32:31.183Z,0
2018-07-06T01:33:31.864Z,0
2018-07-06T01:34:32.595Z,0
2018-07-06T01:35:33.276Z,0
2018-07-06T01:36:34.064Z,0
2018-07-06T01:37:34.787Z,0
2018-07-06T01:38:35.522Z,0
2018-07-06T01:39:36.202Z,0
2018-07-06T01:40:36.884Z,0
2018-07-06T01:41:37.614Z,0
2018-07-06T01:42:38.344Z,0
2018-07-06T01:43:39.057Z,0
2018-07-06T01:44:39.755Z,0
2018-07-06T01:45:40.437Z,0
2018-07-06T01:46:41.167Z,0
2018-07-06T01:47:41.848Z,0
2018-07-06T01:48:42.532Z,0
2018-07-06T01:49:43.310Z,0
2018-07-06T01:50:43.990Z,0
2018-07-06T01:51:44.673Z,0
2018-07-06T01:52:45.404Z,0
2018-07-06T01:53:46.134Z,0
2018-07-06T01:54:46.815Z,0
2018-07-06T01:55:47.593Z,0
2018-07-06T01:56:48.275Z,0
2018-07-06T01:57:48.958Z,0
2018-07-06T01:58:49.692Z,0
2018-07-06T01:59:50.375Z,0
2018-07-06T02:00:51.054Z,0
2018-07-06T02:01:51.736Z,0
2018-07-06T02:02:52.417Z,0
2018-07-06T02:03:53.147Z,0
2018-07-06T02:04:53.878Z,0
2018-07-06T02:05:54.558Z,0
2018-07-06T02:06:55.291Z,0
2018-07-06T02:07:55.972Z,0
2018-07-06T02:08:56.652Z,0
2018-07-06T02:09:57.385Z,0
2018-07-06T02:10:58.113Z,0
2018-07-06T02:11:58.796Z,0
2018-07-06T02:12:59.479Z,0
2018-07-06T02:14:00.211Z,0
2018-07-06T02:15:00.891Z,0
2018-07-06T02:16:01.575Z,0
2018-07-06T02:17:02.355Z,0
2018-07-06T02:18:03.037Z,0
2018-07-06T02:19:03.718Z,0
2018-07-06T02:20:04.402Z,0
2018-07-06T02:21:05.133Z,0
2018-07-06T02:22:05.813Z,0
2018-07-06T02:23:06.495Z,0
2018-07-06T02:24:07.277Z,0
2018-07-06T02:25:07.958Z,0
2018-07-06T02:26:08.715Z,0
2018-07-06T02:27:09.451Z,0
2018-07-06T02:28:10.406Z,0
2018-07-06T02:29:11.136Z,0
2018-07-06T02:30:11.868Z,0
2018-07-06T02:31:12.549Z,0
2018-07-06T02:32:13.231Z,0
2018-07-06T02:33:13.913Z,0
2018-07-06T02:34:14.593Z,0
2018-07-06T02:35:15.326Z,0
2018-07-06T02:36:16.007Z,0
2018-07-06T02:37:16.689Z,0
2018-07-06T02:38:17.431Z,0
2018-07-06T02:39:18.109Z,0
2018-07-06T02:40:18.834Z,0
2018-07-06T02:41:19.517Z,0
2018-07-06T02:42:20.198Z,0
2018-07-06T02:43:20.879Z,0
2018-07-06T02:44:21.611Z,0
2018-07-06T02:45:22.291Z,0
2018-07-06T02:46:23.023Z,0
2018-07-06T02:47:23.757Z,0
2018-07-06T02:48:24.441Z,0
2018-07-06T02:49:25.169Z,0
2018-07-06T02:50:25.852Z,0
2018-07-06T02:51:26.581Z,0
2018-07-06T02:52:27.315Z,0
2018-07-06T02:53:28.048Z,0
2018-07-06T02:54:28.729Z,0
2018-07-06T02:55:29.415Z,0
2018-07-06T02:56:30.146Z,0
2018-07-06T02:57:30.830Z,0
2018-07-06T02:58:31.564Z,0
2018-07-06T02:59:32.262Z,0
2018-07-06T03:00:32.928Z,0
2018-07-06T03:01:33.664Z,0
2018-07-06T03:02:34.345Z,0
2018-07-06T03:03:35.077Z,0
2018-07-06T03:04:35.759Z,0
2018-07-06T03:05:36.467Z,0
2018-07-06T03:06:37.523Z,0
2018-07-06T03:07:38.210Z,0
2018-07-06T03:08:38.887Z,0
2018-07-06T03:09:39.570Z,0
2018-07-06T03:10:40.252Z,0
2018-07-06T03:11:40.984Z,0
2018-07-06T03:12:41.666Z,5
2018-07-06T03:13:42.352Z,5
2018-07-06T03:14:43.082Z,5
2018-07-06T03:15:43.764Z,5
2018-07-06T03:16:44.500Z,5
2018-07-06T03:17:45.184Z,5
2018-07-06T03:18:45.865Z,5
2018-07-06T03:19:46.548Z,5
2018-07-06T03:20:47.229Z,5
2018-07-06T03:21:47.962Z,5
2018-07-06T03:22:48.644Z,5
2018-07-06T03:23:49.326Z,11
2018-07-06T03:24:50.011Z,11
2018-07-06T03:25:50.698Z,11
2018-07-06T03:26:51.430Z,11
2018-07-06T03:27:52.182Z,11
2018-07-06T03:28:52.799Z,11
2018-07-06T03:29:53.481Z,11
2018-07-06T03:30:54.214Z,11
2018-07-06T03:31:54.897Z,16
2018-07-06T03:32:55.584Z,16
2018-07-06T03:33:56.307Z,16
2018-07-06T03:34:57.000Z,16
2018-07-06T03:35:57.685Z,16
2018-07-06T03:36:58.369Z,16
2018-07-06T03:37:59.051Z,16
2018-07-06T03:38:59.737Z,16
2018-07-06T03:40:00.470Z,16
2018-07-06T03:41:01.155Z,16
2018-07-06T03:43:03.501Z,16
2018-07-06T03:44:04.219Z,16
2018-07-06T03:45:04.943Z,16
2018-07-06T03:46:05.612Z,22
2018-07-06T03:47:06.337Z,22
2018-07-06T03:48:07.036Z,22
2018-07-06T03:49:07.730Z,22
2018-07-06T03:50:08.450Z,22
2018-07-06T03:51:09.122Z,22
2018-07-06T03:52:09.792Z,22
2018-07-06T03:53:10.517Z,22
2018-07-06T03:54:11.237Z,22
2018-07-06T03:55:11.911Z,22
2018-07-06T03:56:12.581Z,22
2018-07-06T03:57:13.253Z,28
2018-07-06T03:58:13.975Z,28
2018-07-06T03:59:14.698Z,28
2018-07-06T04:00:15.372Z,28
2018-07-06T04:01:16.092Z,28
2018-07-06T04:02:16.819Z,28
2018-07-06T04:03:17.485Z,28
2018-07-06T04:04:18.209Z,33
2018-07-06T04:05:18.883Z,33
2018-07-06T04:06:19.605Z,33
2018-07-06T04:07:20.278Z,33
2018-07-06T04:08:20.952Z,33
2018-07-06T04:09:21.625Z,33
2018-07-06T04:10:22.348Z,39
2018-07-06T04:11:23.023Z,39
2018-07-06T04:12:23.697Z,33
2018-07-06T04:13:24.422Z,33
2018-07-06T04:14:25.104Z,39
2018-07-06T04:15:25.768Z,39
2018-07-06T04:16:26.443Z,39
2018-07-06T04:17:27.172Z,39
2018-07-06T04:20:58.897Z,39
2018-07-06T04:21:59.621Z,45
2018-07-06T04:23:00.344Z,45
2018-07-06T04:24:01.068Z,50
2018-07-06T04:25:01.746Z,50
2018-07-06T04:26:02.417Z,56
2018-07-06T04:27:03.090Z,56
2018-07-06T04:28:03.763Z,61
2018-07-06T04:29:04.486Z,61
2018-07-06T04:30:05.259Z,67
2018-07-06T04:31:05.931Z,73
2018-07-06T04:32:06.604Z,73
2018-07-06T04:33:07.277Z,73
2018-07-06T04:34:07.949Z,73
2018-07-06T04:35:08.720Z,73
2018-07-06T04:36:09.395Z,73
2018-07-06T04:37:10.068Z,67
2018-07-06T04:38:10.740Z,67
2018-07-06T04:39:11.414Z,73
2018-07-06T04:40:12.190Z,78
2018-07-06T04:41:12.859Z,73
2018-07-06T04:42:13.533Z,73
2018-07-06T04:43:14.207Z,73
2018-07-06T04:44:14.907Z,73
2018-07-06T04:45:15.603Z,73
2018-07-06T04:46:16.327Z,78
2018-07-06T04:47:16.999Z,78
2018-07-06T04:48:17.724Z,84
2018-07-06T04:49:18.396Z,90
2018-07-06T04:50:19.071Z,84
2018-07-06T04:51:19.745Z,84
2018-07-06T04:52:20.417Z,84
2018-07-06T04:53:21.139Z,84
2018-07-06T04:54:21.816Z,84
2018-07-06T04:55:22.498Z,84
2018-07-06T04:56:23.162Z,84
2018-07-06T04:57:23.886Z,78
2018-07-06T04:58:24.560Z,78
2018-07-06T04:59:25.281Z,78
2018-07-06T05:00:25.957Z,78
2018-07-06T05:01:26.633Z,78
2018-07-06T05:02:27.307Z,84
2018-07-06T05:03:28.035Z,84
2018-07-06T05:04:28.704Z,84
2018-07-06T05:05:29.429Z,90
2018-07-06T05:06:30.102Z,90
2018-07-06T05:07:30.827Z,90
2018-07-06T05:08:31.551Z,95
2018-07-06T05:09:32.226Z,90
2018-07-06T05:10:32.899Z,90
2018-07-06T05:11:33.624Z,90
2018-07-06T05:12:34.347Z,90
2018-07-06T05:13:35.020Z,95
2018-07-06T05:14:35.692Z,95
2018-07-06T05:15:36.366Z,95
2018-07-06T05:16:37.122Z,95
2018-07-06T05:17:37.765Z,95
2018-07-06T05:18:38.441Z,95
2018-07-06T05:19:39.163Z,101
2018-07-06T05:20:39.839Z,101
2018-07-06T05:21:40.569Z,106
2018-07-06T05:22:41.292Z,106
2018-07-06T05:23:41.916Z,112
2018-07-06T05:24:42.589Z,112
2018-07-06T05:25:43.321Z,118
2018-07-06T05:26:43.987Z,118
2018-07-06T05:27:44.710Z,112
2018-07-06T05:28:45.437Z,112
2018-07-06T05:29:46.113Z,112
2018-07-06T05:30:46.837Z,112
2018-07-06T05:31:47.514Z,112
2018-07-06T05:32:48.190Z,112
2018-07-06T05:33:48.867Z,112
2018-07-06T05:34:49.593Z,112
2018-07-06T05:35:50.263Z,106
2018-07-06T05:36:50.936Z,106
2018-07-06T05:37:51.639Z,112
2018-07-06T05:38:52.288Z,112
2018-07-06T05:39:53.062Z,112
2018-07-06T05:40:53.787Z,112
2018-07-06T05:41:54.512Z,118
2018-07-06T05:42:55.188Z,123
2018-07-06T05:43:55.914Z,129
2018-07-06T05:44:56.589Z,129
2018-07-06T05:45:57.263Z,135
2018-07-06T05:46:57.939Z,129
2018-07-06T05:47:58.707Z,129
2018-07-06T05:48:59.391Z,123
2018-07-06T05:50:00.167Z,123
2018-07-06T05:51:00.891Z,123
2018-07-06T05:52:01.571Z,123
2018-07-06T05:53:02.293Z,129
2018-07-06T05:54:02.971Z,123
2018-07-06T05:55:03.697Z,112
2018-07-06T05:56:04.425Z,112
2018-07-06T05:57:05.100Z,118
2018-07-06T05:58:05.778Z,135
2018-07-06T05:59:06.454Z,146
2018-07-06T06:00:07.181Z,180
2018-07-06T06:01:07.857Z,191
2018-07-06T06:02:08.581Z,185
2018-07-06T06:03:09.262Z,180
2018-07-06T06:04:09.980Z,196
2018-07-06T06:05:10.706Z,185
2018-07-06T06:06:11.381Z,180
2018-07-06T06:07:12.059Z,174
2018-07-06T06:08:12.733Z,168
2018-07-06T06:09:13.408Z,174
2018-07-06T06:10:14.133Z,191
2018-07-06T06:11:14.812Z,196
2018-07-06T06:12:15.503Z,208
2018-07-06T06:13:16.250Z,253
2018-07-06T06:14:16.977Z,506
2018-07-06T06:15:17.654Z,776
2018-07-06T06:16:18.379Z,590
2018-07-06T06:17:19.107Z,753
2018-07-06T06:18:19.786Z,292
2018-07-06T06:19:20.465Z,736
2018-07-06T06:20:21.141Z,208
2018-07-06T06:21:21.866Z,196
2018-07-06T06:22:22.592Z,191
2018-07-06T06:23:23.271Z,196
2018-07-06T06:24:23.948Z,208
2018-07-06T06:25:24.674Z,230
2018-07-06T06:26:25.352Z,230
2018-07-06T06:27:26.079Z,230
2018-07-06T06:28:26.807Z,241
2018-07-06T06:29:27.488Z,264
2018-07-06T06:30:28.220Z,303
2018-07-06T06:31:28.951Z,421
2018-07-06T06:32:29.631Z,466
2018-07-06T06:33:30.415Z,348
2018-07-06T06:34:31.037Z,320
2018-07-06T06:35:31.718Z,326
2018-07-06T06:36:32.451Z,315
2018-07-06T06:37:33.129Z,315
2018-07-06T06:38:33.809Z,309
2018-07-06T06:39:34.492Z,292
2018-07-06T06:40:35.172Z,258
2018-07-06T06:41:35.902Z,225
2018-07-06T06:42:36.832Z,213
2018-07-06T06:43:37.508Z,208
2018-07-06T06:44:38.205Z,208
2018-07-06T06:45:38.921Z,219
2018-07-06T06:46:39.741Z,230
2018-07-06T06:47:40.380Z,241
2018-07-06T06:48:41.058Z,247
2018-07-06T06:49:41.740Z,258
2018-07-06T06:50:42.478Z,264
2018-07-06T06:51:43.195Z,281
2018-07-06T06:52:43.926Z,281
2018-07-06T06:53:44.606Z,275
2018-07-06T06:54:45.285Z,286
2018-07-06T06:55:46.017Z,320
2018-07-06T06:56:46.746Z,360
2018-07-06T06:57:47.428Z,360
2018-07-06T06:58:48.110Z,343
2018-07-06T06:59:48.791Z,315
2018-07-06T07:00:49.471Z,286
2018-07-06T07:01:50.207Z,281
2018-07-06T07:02:50.937Z,427
2018-07-06T07:03:51.615Z,286
2018-07-06T07:04:52.348Z,286
2018-07-06T07:05:53.029Z,275
2018-07-06T07:06:53.707Z,281
2018-07-06T07:07:54.436Z,286
2018-07-06T07:08:55.128Z,298
2018-07-06T07:09:55.900Z,326
2018-07-06T07:10:56.583Z,343
2018-07-06T07:11:57.265Z,371
2018-07-06T07:12:57.946Z,331
2018-07-06T07:13:58.687Z,331
2018-07-06T07:14:59.360Z,331
2018-07-06T07:16:00.043Z,326
2018-07-06T07:17:00.825Z,337
2018-07-06T07:18:01.509Z,337
2018-07-06T07:19:02.191Z,337
2018-07-06T07:20:02.924Z,343
2018-07-06T07:21:03.624Z,348
2018-07-06T07:22:04.297Z,376
2018-07-06T07:23:05.021Z,354
2018-07-06T07:24:05.752Z,371
2018-07-06T07:25:06.434Z,337
2018-07-06T07:26:07.115Z,337
2018-07-06T07:27:07.796Z,326
2018-07-06T07:28:08.529Z,303
2018-07-06T07:29:09.257Z,309
2018-07-06T07:30:09.911Z,337
2018-07-06T07:31:10.575Z,410
2018-07-06T07:32:11.310Z,416
2018-07-06T07:33:12.089Z,478
2018-07-06T07:34:12.773Z,399
2018-07-06T07:35:13.505Z,517
2018-07-06T07:36:14.186Z,506
2018-07-06T07:37:14.865Z,517
2018-07-06T07:38:15.597Z,416
2018-07-06T07:39:16.279Z,399
2018-07-06T07:40:16.961Z,315
2018-07-06T07:41:17.693Z,286
2018-07-06T07:42:18.374Z,309
2018-07-06T07:43:19.108Z,331
2018-07-06T07:44:19.790Z,298
2018-07-06T07:45:20.472Z,270
2018-07-06T07:46:21.157Z,264
2018-07-06T07:47:21.886Z,348
2018-07-06T07:48:22.618Z,438
2018-07-06T07:49:23.299Z,961
2018-07-06T07:50:23.983Z,1462
2018-07-06T07:51:24.666Z,1288
2018-07-06T07:53:26.081Z,1046
2018-07-06T07:54:26.804Z,905
2018-07-06T07:55:27.490Z,1136
2018-07-06T07:56:28.173Z,450
2018-07-06T07:57:28.855Z,337
2018-07-06T07:58:29.589Z,298
2018-07-06T07:59:30.271Z,286
2018-07-06T08:00:31.062Z,281
2018-07-06T08:01:31.645Z,286
2018-07-06T08:02:32.326Z,275
2018-07-06T08:03:33.058Z,281
2018-07-06T08:04:33.740Z,298
2018-07-06T08:05:34.424Z,337
2018-07-06T08:06:35.159Z,393
2018-07-06T08:07:35.792Z,433
2018-07-06T08:08:36.528Z,382
2018-07-06T08:09:37.212Z,343
2018-07-06T08:10:37.947Z,348
2018-07-06T08:11:38.631Z,298
2018-07-06T08:12:39.311Z,258
2018-07-06T08:13:40.049Z,264
2018-07-06T08:14:40.777Z,281
2018-07-06T08:15:41.459Z,292
2018-07-06T08:16:42.141Z,298
2018-07-06T08:17:42.876Z,331
2018-07-06T08:18:43.562Z,354
2018-07-06T08:19:44.294Z,382
2018-07-06T08:20:45.029Z,466
2018-07-06T08:21:45.763Z,450
2018-07-06T08:22:46.446Z,455
2018-07-06T08:23:47.181Z,495
2018-07-06T08:24:47.863Z,596
2018-07-06T08:25:48.546Z,466
2018-07-06T08:26:49.258Z,416
2018-07-06T08:27:49.964Z,421
2018-07-06T08:28:50.704Z,376
2018-07-06T08:29:51.378Z,326
2018-07-06T08:30:52.113Z,292
2018-07-06T08:31:52.796Z,270
2018-07-06T08:32:53.478Z,298
2018-07-06T08:33:54.160Z,303
2018-07-06T08:34:54.894Z,331
2018-07-06T08:35:55.578Z,405
2018-07-06T08:36:56.311Z,421
2018-07-06T08:37:56.996Z,438
2018-07-06T08:38:57.732Z,388
2018-07-06T08:39:58.559Z,354
2018-07-06T08:40:59.242Z,371
2018-07-06T08:41:59.924Z,354
2018-07-06T08:43:00.608Z,343
2018-07-06T08:44:01.296Z,326
2018-07-06T08:45:02.075Z,348
2018-07-06T08:46:02.757Z,365
2018-07-06T08:47:03.440Z,337
2018-07-06T08:48:04.176Z,320
2018-07-06T08:49:04.860Z,365
2018-07-06T08:50:05.543Z,331
2018-07-06T08:51:06.275Z,281
2018-07-06T08:52:06.957Z,264
2018-07-06T08:53:07.639Z,258
2018-07-06T08:54:08.320Z,275
2018-07-06T08:55:09.053Z,292
2018-07-06T08:56:09.785Z,315
2018-07-06T08:57:10.468Z,286
2018-07-06T08:58:11.149Z,275
2018-07-06T08:59:11.829Z,320
2018-07-06T09:00:12.617Z,382
2018-07-06T09:01:13.247Z,562
2018-07-06T09:02:13.928Z,556
2018-07-06T09:03:14.613Z,551
2018-07-06T09:04:15.387Z,466
2018-07-06T09:05:16.072Z,416
2018-07-06T09:06:16.804Z,348
2018-07-06T09:07:17.494Z,337
2018-07-06T09:08:18.222Z,371
2018-07-06T09:09:18.943Z,382
2018-07-06T09:10:19.590Z,382
2018-07-06T09:11:20.324Z,354
2018-07-06T09:12:21.008Z,354
2018-07-06T09:13:21.691Z,371
2018-07-06T09:14:22.377Z,371
2018-07-06T09:15:23.060Z,354
2018-07-06T09:16:23.920Z,360
2018-07-06T09:17:24.532Z,337
2018-07-06T09:18:25.211Z,337
2018-07-06T09:19:26.070Z,337
2018-07-06T09:20:26.578Z,337
2018-07-06T09:21:27.312Z,365
2018-07-06T09:22:27.997Z,421
2018-07-06T09:23:28.680Z,461
2018-07-06T09:24:29.364Z,489
2018-07-06T09:25:30.185Z,461
2018-07-06T09:26:30.791Z,365
2018-07-06T09:27:31.519Z,348
2018-07-06T09:28:32.250Z,376
2018-07-06T09:29:32.936Z,444
2018-07-06T09:30:33.621Z,427
2018-07-06T09:31:34.354Z,416
2018-07-06T09:32:35.040Z,399
2018-07-06T09:33:35.740Z,360
2018-07-06T09:34:36.458Z,337
2018-07-06T09:35:37.194Z,315
2018-07-06T09:36:37.929Z,303
2018-07-06T09:37:38.608Z,286
2018-07-06T09:38:39.290Z,275
2018-07-06T09:39:39.973Z,292
2018-07-06T09:40:40.661Z,343
2018-07-06T09:41:41.340Z,388
2018-07-06T09:42:42.027Z,405
2018-07-06T09:43:43.521Z,427
2018-07-06T09:44:44.207Z,421
2018-07-06T09:45:44.941Z,433
2018-07-06T09:46:45.676Z,433
2018-07-06T09:47:46.767Z,438
2018-07-06T09:50:03.824Z,388
2018-07-06T09:51:04.987Z,326
2018-07-06T09:53:22.643Z,292
2018-07-06T10:53:55.111Z,202
2018-07-06T10:54:55.890Z,196
2018-07-06T10:55:56.673Z,191
2018-07-06T10:56:57.406Z,196
2018-07-06T10:57:58.187Z,196
2018-07-06T10:58:58.918Z,191
2018-07-06T10:59:59.650Z,185
2018-07-06T11:01:00.385Z,174
2018-07-06T11:02:01.066Z,168
2018-07-06T11:03:01.799Z,174
2018-07-06T11:04:02.531Z,168
2018-07-06T11:05:03.304Z,168
2018-07-06T11:06:03.989Z,168
2018-07-06T11:07:04.720Z,174
2018-07-06T11:08:05.453Z,163
2018-07-06T11:09:06.184Z,157
2018-07-06T11:10:06.914Z,157
2018-07-06T11:11:07.699Z,151
2018-07-06T11:12:08.417Z,151
2018-07-06T11:13:09.097Z,146
2018-07-06T11:14:09.828Z,146
2018-07-06T11:15:10.641Z,151
2018-07-06T11:16:11.394Z,151
2018-07-06T11:17:12.191Z,106
2018-07-06T11:18:12.904Z,151
2018-07-06T11:19:13.916Z,146
2018-07-06T11:20:14.661Z,146
2018-07-06T11:21:15.342Z,146
2018-07-06T11:22:16.480Z,146
2018-07-06T11:23:17.207Z,151
2018-07-06T11:24:17.939Z,163
2018-07-06T11:25:18.707Z,174
2018-07-06T11:26:19.440Z,168
2018-07-06T11:27:20.223Z,157
2018-07-06T11:28:20.952Z,146
2018-07-06T11:29:21.681Z,151
2018-07-06T11:30:22.412Z,157
2018-07-06T11:31:23.140Z,151
2018-07-06T11:33:39.586Z,146
2018-07-06T11:34:40.317Z,146
2018-07-06T11:35:41.099Z,146
2018-07-06T11:37:57.465Z,202
2018-07-06T11:38:58.080Z,191
2018-07-06T11:39:58.804Z,225
2018-07-06T11:40:59.535Z,225
2018-07-06T11:42:00.214Z,225
2018-07-06T11:43:00.900Z,191
2018-07-06T11:45:17.201Z,135
2018-07-06T11:46:18.119Z,185
2018-07-06T11:47:18.897Z,191
2018-07-06T11:48:19.677Z,236
2018-07-06T11:49:20.405Z,230
2018-07-06T11:50:21.099Z,151
2018-07-06T11:51:21.860Z,157
2018-07-06T11:52:22.593Z,191
2018-07-06T11:53:23.371Z,225
2018-07-06T11:54:24.057Z,230
2018-07-06T11:55:24.783Z,219
2018-07-06T11:56:25.561Z,185
2018-07-06T11:57:26.242Z,163
2018-07-06T11:58:26.924Z,151
2018-07-06T11:59:27.705Z,146
2018-07-06T12:00:28.385Z,151
2018-07-06T12:01:29.117Z,140
2018-07-06T12:02:29.806Z,140
2018-07-06T12:03:30.578Z,140
2018-07-06T12:05:46.773Z,135
2018-07-06T12:06:47.503Z,135
2018-07-06T12:09:03.999Z,135
2018-07-06T12:10:04.779Z,135
2018-07-06T12:11:05.760Z,135
2018-07-06T12:12:06.694Z,135
2018-07-06T12:13:07.471Z,135
2018-07-06T12:14:08.202Z,135
2018-07-06T12:15:08.933Z,135
2018-07-06T12:16:09.915Z,129
2018-07-06T12:17:10.647Z,129
2018-07-06T12:18:11.324Z,129
2018-07-06T12:19:12.074Z,129
2018-07-06T12:20:12.877Z,129
2018-07-06T12:21:13.667Z,123
2018-07-06T12:22:14.338Z,129
2018-07-06T12:23:15.070Z,135
2018-07-06T12:24:15.800Z,135
2018-07-06T12:25:16.481Z,135
2018-07-06T12:26:17.212Z,129
2018-07-06T12:27:17.942Z,129
2018-07-06T12:28:18.621Z,129
2018-07-06T12:29:19.301Z,129
2018-07-06T12:30:20.034Z,129
2018-07-06T12:31:20.764Z,135
2018-07-06T12:32:21.493Z,118
2018-07-06T12:33:22.223Z,129
2018-07-06T12:34:22.961Z,129
2018-07-06T12:35:23.735Z,129
2018-07-06T12:36:24.497Z,129
2018-07-06T12:37:25.285Z,123
2018-07-06T12:38:25.959Z,129
2018-07-06T12:39:26.721Z,129
2018-07-06T12:40:27.452Z,129
2018-07-06T12:41:28.219Z,129
2018-07-06T12:42:28.913Z,129
2018-07-06T12:43:29.592Z,129
2018-07-06T12:44:30.271Z,129
2018-07-06T12:45:31.002Z,123
2018-07-06T12:46:31.735Z,123
2018-07-06T12:47:32.462Z,123
2018-07-06T12:48:33.143Z,123
2018-07-06T12:49:33.824Z,123
2018-07-06T12:50:34.605Z,123
2018-07-06T12:51:35.384Z,123
2018-07-06T12:52:36.113Z,123
2018-07-06T12:53:36.843Z,123
2018-07-06T12:54:37.573Z,123
2018-07-06T12:55:38.302Z,123
2018-07-06T12:56:38.985Z,123
2018-07-06T12:57:39.714Z,123
2018-07-06T12:58:40.533Z,123
2018-07-06T12:59:41.124Z,123
2018-07-06T13:00:41.854Z,123
2018-07-06T13:01:42.585Z,123
2018-07-06T13:02:43.313Z,123
2018-07-06T13:03:44.042Z,123
2018-07-06T13:04:44.774Z,123
2018-07-06T13:05:45.555Z,129
2018-07-06T13:06:46.285Z,129
2018-07-06T13:07:47.013Z,129
2018-07-06T13:08:47.741Z,129
2018-07-06T13:09:48.471Z,123
2018-07-06T13:10:49.202Z,123
2018-07-06T13:11:49.930Z,123
2018-07-06T13:12:50.659Z,123
2018-07-06T13:13:51.441Z,123
2018-07-06T13:14:52.121Z,123
2018-07-06T13:15:52.851Z,123
2018-07-06T13:16:53.580Z,123
2018-07-06T13:17:54.311Z,123
2018-07-06T13:18:55.041Z,123
2018-07-06T13:19:55.822Z,123
2018-07-06T13:20:56.555Z,123
2018-07-06T13:21:57.275Z,123
2018-07-06T13:22:58.005Z,123
2018-07-06T13:23:58.734Z,123
2018-07-06T13:24:59.467Z,129
2018-07-06T13:26:00.224Z,129
2018-07-06T13:27:00.925Z,129
2018-07-06T13:28:01.656Z,129
2018-07-06T13:29:02.387Z,129
2018-07-06T13:30:03.117Z,123
2018-07-06T13:31:03.847Z,123
2018-07-06T13:32:04.578Z,123
2018-07-06T13:33:05.260Z,123
2018-07-06T13:34:05.995Z,123
2018-07-06T13:35:06.724Z,123
2018-07-06T13:36:07.450Z,123
2018-07-06T13:37:08.129Z,123
2018-07-06T13:38:08.860Z,123
2018-07-06T13:39:09.664Z,123
2018-07-06T13:40:10.320Z,123
2018-07-06T13:41:11.102Z,123
2018-07-06T13:42:11.833Z,123
2018-07-06T13:43:12.515Z,129
2018-07-06T13:44:13.292Z,140
2018-07-06T13:45:14.022Z,140
2018-07-06T13:46:14.754Z,129
2018-07-06T13:47:15.534Z,123
2018-07-06T13:48:16.264Z,123
2018-07-06T13:49:16.994Z,123
2018-07-06T13:50:17.773Z,123
2018-07-06T13:51:18.503Z,123
2018-07-06T13:52:19.235Z,123
2018-07-06T13:53:19.967Z,123
2018-07-06T13:54:20.695Z,123
2018-07-06T13:55:21.425Z,123
2018-07-06T13:56:22.105Z,123
2018-07-06T13:57:22.834Z,123
2018-07-06T13:58:23.566Z,123
2018-07-06T13:59:24.301Z,123
2018-07-06T14:00:24.978Z,123
2018-07-06T14:01:25.708Z,123
2018-07-06T14:02:26.441Z,123
2018-07-06T14:03:27.169Z,123
2018-07-06T14:04:27.898Z,123
2018-07-06T14:05:28.630Z,123
2018-07-06T14:06:29.311Z,123
2018-07-06T14:07:30.043Z,123
2018-07-06T14:08:30.773Z,123
2018-07-06T14:09:31.501Z,123
2018-07-06T14:10:32.233Z,118
2018-07-06T14:11:32.961Z,118
2018-07-06T14:12:33.693Z,118
2018-07-06T14:13:34.423Z,118
2018-07-06T14:14:35.153Z,118
2018-07-06T14:15:35.924Z,118
2018-07-06T14:16:36.611Z,118
2018-07-06T14:17:37.342Z,118
2018-07-06T14:18:38.095Z,118
2018-07-06T14:19:38.897Z,118
2018-07-06T14:20:39.585Z,118
2018-07-06T14:21:40.366Z,118
2018-07-06T14:22:41.123Z,118
2018-07-06T14:23:41.796Z,118
2018-07-06T14:24:42.511Z,118
2018-07-06T14:25:43.240Z,118
2018-07-06T14:26:43.970Z,118
2018-07-06T14:27:44.699Z,118
2018-07-06T14:28:45.431Z,118
2018-07-06T14:29:46.162Z,118
2018-07-06T14:30:46.848Z,118
2018-07-06T14:31:47.572Z,118
2018-07-06T14:32:48.302Z,123
2018-07-06T14:33:49.031Z,129
2018-07-06T14:34:49.769Z,129
2018-07-06T14:35:50.506Z,129
2018-07-06T14:36:51.217Z,123
2018-07-06T14:37:51.949Z,118
2018-07-06T14:38:52.679Z,118
2018-07-06T14:39:53.409Z,118
2018-07-06T14:40:54.143Z,118
2018-07-06T14:41:54.871Z,118
2018-07-06T14:42:55.550Z,118
2018-07-06T14:43:56.285Z,118
2018-07-06T14:44:57.012Z,118
2018-07-06T14:45:57.744Z,118
2018-07-06T14:46:58.474Z,118
2018-07-06T14:47:59.205Z,118
2018-07-06T14:48:59.934Z,118
2018-07-06T14:50:00.664Z,118
2018-07-06T14:51:01.396Z,118
2018-07-06T14:52:02.130Z,118
2018-07-06T14:53:02.910Z,118
2018-07-06T14:54:03.641Z,118
2018-07-06T14:55:04.422Z,118
2018-07-06T14:56:05.152Z,118
2018-07-06T14:57:05.833Z,123
2018-07-06T14:58:06.562Z,135
2018-07-06T14:59:07.293Z,140
2018-07-06T15:00:08.046Z,135
2018-07-06T15:01:08.805Z,135
2018-07-06T15:02:09.537Z,129
2018-07-06T15:03:10.217Z,123
2018-07-06T15:04:10.948Z,123
2018-07-06T15:05:11.678Z,123
2018-07-06T15:06:12.364Z,129
2018-07-06T15:07:13.041Z,135
2018-07-06T15:08:13.823Z,123
2018-07-06T15:09:14.612Z,123
2018-07-06T15:10:15.335Z,123
2018-07-06T15:11:16.121Z,123
2018-07-06T15:12:16.932Z,118
2018-07-06T15:14:33.138Z,135
2018-07-06T15:15:34.424Z,129
2018-07-06T15:16:35.106Z,129
2018-07-06T15:18:51.400Z,84
2018-07-06T15:22:23.198Z,140
2018-07-06T15:23:23.983Z,146
2018-07-06T15:24:24.710Z,151
2018-07-06T15:25:25.646Z,135
2018-07-06T15:26:26.378Z,123
2018-07-06T15:27:27.308Z,106
2018-07-06T15:29:43.549Z,129
2018-07-06T15:32:00.023Z,112
2018-07-06T15:33:00.724Z,90
2018-07-06T15:34:01.606Z,129